Time;durP1;ratioP1;P1;durP2;ratioP2;P2;SDS_P1;SDS_P2;PMS_P1;PMS_P2;Temp;Humidity;BMP_temperature;BMP_pressure;BME280_temperature;BME280_humidity;BME280_pressure;Samples;Min_cycle;Max_cycle;Signal;HPM_P1;HPM_P2
2021/03/14 00:00:17;;;;;;;3.57;1.33;;;;;;;3.28;100.00;94864.56;1284682;23;19996;-71
2021/03/14 00:00:47;;;;;;;4.07;1.00;;;;;;;3.27;100.00;94860.28;1284792;23;20075;-70
2021/03/14 00:01:18;;;;;;;3.13;1.10;;;;;;;3.27;100.00;94860.28;1284553;23;20031;-70
2021/03/14 00:01:48;;;;;;;4.03;0.90;;;;;;;3.27;100.00;94857.66;1284826;23;20027;-70
2021/03/14 00:02:19;;;;;;;2.57;1.33;;;;;;;3.27;100.00;94852.38;1284775;23;20003;-70
2021/03/14 00:02:49;;;;;;;4.00;1.53;;;;;;;3.28;100.00;94851.34;1284164;23;20023;-70
2021/03/14 00:03:21;;;;;;;2.93;0.90;;;;;;;3.27;100.00;94855.00;1283440;23;20005;-70
2021/03/14 00:03:51;;;;;;;4.57;1.10;;;;;;;3.24;100.00;94853.69;1284528;23;20028;-70
2021/03/14 00:04:22;;;;;;;2.77;1.00;;;;;;;3.25;100.00;94849.19;1284416;23;20442;-71
2021/03/14 00:04:52;;;;;;;1.43;0.90;;;;;;;3.30;100.00;94855.31;1284801;23;19997;-71
2021/03/14 00:05:23;;;;;;;2.10;1.10;;;;;;;3.27;100.00;94849.72;1284661;23;20001;-70
2021/03/14 00:05:53;;;;;;;2.90;1.00;;;;;;;3.27;100.00;94850.53;1284788;23;20000;-70
2021/03/14 00:06:24;;;;;;;4.10;1.10;;;;;;;3.29;100.00;94855.59;1284657;23;20005;-70
2021/03/14 00:06:54;;;;;;;3.40;0.80;;;;;;;3.29;100.00;94845.00;1284245;23;19996;-70
2021/03/14 00:07:24;;;;;;;4.67;1.20;;;;;;;3.31;100.00;94854.25;1284516;23;20008;-71
2021/03/14 00:07:55;;;;;;;3.43;1.17;;;;;;;3.33;100.00;94851.41;1284427;23;20005;-70
2021/03/14 00:08:27;;;;;;;4.93;1.10;;;;;;;3.31;100.00;94851.63;1278281;23;20088;-71
2021/03/14 00:08:57;;;;;;;3.55;0.98;;;;;;;3.32;100.00;94850.56;1284418;23;20016;-70
2021/03/14 00:09:28;;;;;;;4.30;1.00;;;;;;;3.31;100.00;94851.63;1278244;23;20016;-71
2021/03/14 00:09:58;;;;;;;5.57;1.20;;;;;;;3.33;100.00;94846.13;1278749;23;20009;-70
2021/03/14 00:10:29;;;;;;;3.93;1.13;;;;;;;3.33;100.00;94854.03;1284473;23;20389;-71
2021/03/14 00:11:01;;;;;;;3.80;1.10;;;;;;;3.34;100.00;94851.13;1284408;23;19997;-71
2021/03/14 00:11:31;;;;;;;4.05;1.38;;;;;;;3.31;100.00;94851.63;1284639;23;20299;-71
2021/03/14 00:12:01;;;;;;;3.27;1.10;;;;;;;3.33;100.00;94854.84;1284824;23;20003;-71
2021/03/14 00:12:32;;;;;;;2.60;1.00;;;;;;;3.33;100.00;94854.03;1284828;23;20091;-70
2021/03/14 00:13:03;;;;;;;3.40;1.13;;;;;;;3.33;100.00;94844.25;1284605;23;19999;-71
2021/03/14 00:13:35;;;;;;;2.05;0.73;;;;;;;3.36;100.00;94853.50;1284875;23;20011;-71
2021/03/14 00:14:06;;;;;;;2.95;1.50;;;;;;;3.33;100.00;94848.75;1284421;23;20374;-71
2021/03/14 00:14:36;;;;;;;1.80;0.90;;;;;;;3.35;100.00;94847.44;1284529;23;20032;-71
2021/03/14 00:15:07;;;;;;;3.07;1.00;;;;;;;3.35;100.00;94852.72;1284353;23;20295;-70
2021/03/14 00:15:37;;;;;;;4.25;1.17;;;;;;;3.36;100.00;94845.59;1284556;23;20001;-70
2021/03/14 00:16:09;;;;;;;2.97;1.10;;;;;;;3.33;100.00;94849.56;1284876;23;19989;-70
2021/03/14 00:16:39;;;;;;;5.78;1.23;;;;;;;3.34;100.00;94847.69;1284800;23;20007;-70
2021/03/14 00:17:09;;;;;;;2.67;1.00;;;;;;;3.33;100.00;94851.41;1284859;23;20005;-70
2021/03/14 00:17:40;;;;;;;2.87;1.10;;;;;;;3.34;100.00;94845.06;1284868;23;20008;-70
2021/03/14 00:18:10;;;;;;;3.40;1.00;;;;;;;3.37;100.00;94847.19;1284854;23;19996;-71
2021/03/14 00:18:41;;;;;;;3.10;1.20;;;;;;;3.39;100.00;94847.75;1284877;23;20004;-70
2021/03/14 00:19:12;;;;;;;3.25;1.10;;;;;;;3.39;100.00;94843.25;1284408;23;20003;-71
2021/03/14 00:19:42;;;;;;;2.40;1.03;;;;;;;3.41;100.00;94850.91;1284493;23;20005;-70
2021/03/14 00:20:13;;;;;;;2.40;1.00;;;;;;;3.41;100.00;94844.84;1284444;23;19996;-70
2021/03/14 00:20:43;;;;;;;4.23;1.10;;;;;;;3.43;100.00;94846.19;1284675;23;20012;-70
2021/03/14 00:21:15;;;;;;;2.97;1.00;;;;;;;3.41;100.00;94848.28;1290626;23;20046;-70
2021/03/14 00:21:46;;;;;;;4.60;1.20;;;;;;;3.43;100.00;94843.56;1284865;23;20036;-71
2021/03/14 00:22:16;;;;;;;4.95;1.00;;;;;;;3.39;100.00;94847.75;1290738;23;20361;-71
2021/03/14 00:22:47;;;;;;;6.20;1.10;;;;;;;3.39;100.00;94845.88;1290616;23;20011;-72
2021/03/14 00:23:17;;;;;;;3.70;1.00;;;;;;;3.41;100.00;94844.84;1290549;23;20000;-71
2021/03/14 00:23:47;;;;;;;3.90;1.00;;;;;;;3.41;100.00;94844.84;1290749;23;19996;-71
2021/03/14 00:24:18;;;;;;;8.13;1.30;;;;;;;3.36;100.00;94833.19;1284891;23;20055;-71
2021/03/14 00:24:48;;;;;;;6.00;1.33;;;;;;;3.38;100.00;94846.16;1284733;23;20008;-71
2021/03/14 00:25:19;;;;;;;3.77;1.13;;;;;;;3.39;100.00;94845.09;1284822;23;20007;-71
2021/03/14 00:25:49;;;;;;;3.73;1.10;;;;;;;3.37;100.00;94850.63;1284762;23;20007;-70
2021/03/14 00:26:19;;;;;;;3.60;1.10;;;;;;;3.42;100.00;94857.00;1284756;23;20050;-70
2021/03/14 00:26:50;;;;;;;3.87;1.00;;;;;;;3.43;100.00;94859.41;1284845;23;20047;-70
2021/03/14 00:27:20;;;;;;;2.50;1.07;;;;;;;3.43;100.00;94858.56;1284765;23;20051;-70
2021/03/14 00:27:51;;;;;;;3.43;1.00;;;;;;;3.43;100.00;94850.66;1284771;23;20000;-70
2021/03/14 00:28:21;;;;;;;2.27;0.97;;;;;;;3.47;100.00;94849.91;1284851;23;20001;-70
2021/03/14 00:28:52;;;;;;;4.00;1.23;;;;;;;3.47;100.00;94855.19;1284861;23;20000;-70
2021/03/14 00:29:22;;;;;;;5.33;1.20;;;;;;;3.46;100.00;94856.25;1284756;23;19997;-70
2021/03/14 00:29:53;;;;;;;5.17;1.20;;;;;;;3.47;100.00;94855.19;1284875;23;19997;-70
2021/03/14 00:30:23;;;;;;;5.60;1.27;;;;;;;3.47;100.00;94849.09;1290782;23;19996;-71
2021/03/14 00:30:54;;;;;;;3.47;1.07;;;;;;;3.48;100.00;94848.06;1290804;23;20417;-70
2021/03/14 00:31:24;;;;;;;2.07;1.00;;;;;;;3.46;100.00;94850.94;1290773;23;20054;-70
2021/03/14 00:31:55;;;;;;;2.43;1.00;;;;;;;3.47;100.00;94849.91;1290518;23;20000;-70
2021/03/14 00:32:25;;;;;;;3.43;1.00;;;;;;;3.46;100.00;94845.66;1284899;23;20000;-70
2021/03/14 00:32:56;;;;;;;3.73;0.93;;;;;;;3.45;100.00;94846.72;1284839;23;20007;-70
2021/03/14 00:33:26;;;;;;;2.50;0.97;;;;;;;3.47;100.00;94844.63;1284641;23;20419;-70
2021/03/14 00:33:57;;;;;;;4.53;1.23;;;;;;;3.47;100.00;94849.91;1284761;23;20310;-70
2021/03/14 00:34:28;;;;;;;2.83;1.00;;;;;;;3.47;100.00;94849.91;1284417;23;20357;-70
2021/03/14 00:34:59;;;;;;;4.35;1.23;;;;;;;3.47;100.00;94841.97;1284457;23;20050;-70
2021/03/14 00:35:29;;;;;;;2.83;1.10;;;;;;;3.47;100.00;94844.63;1284349;23;20528;-70
2021/03/14 00:35:59;;;;;;;2.17;0.97;;;;;;;3.51;100.00;94847.56;1284501;23;20003;-70
2021/03/14 00:36:30;;;;;;;2.70;0.93;;;;;;;3.50;100.00;94854.69;1284863;23;20024;-70
2021/03/14 00:37:00;;;;;;;2.33;1.00;;;;;;;3.50;100.00;94840.69;1284798;23;20000;-70
2021/03/14 00:37:31;;;;;;;5.77;1.87;;;;;;;3.49;100.00;94850.47;1284782;23;20000;-70
2021/03/14 00:38:01;;;;;;;2.43;0.83;;;;;;;3.49;100.00;94847.81;1284741;23;20070;-70
2021/03/14 00:38:31;;;;;;;1.97;0.90;;;;;;;3.47;100.00;94855.19;1284861;23;20358;-70
2021/03/14 00:39:02;;;;;;;3.43;1.10;;;;;;;3.51;100.00;94844.91;1284885;23;20007;-70
2021/03/14 00:39:33;;;;;;;4.60;1.03;;;;;;;3.51;100.00;94856.28;1284839;23;20001;-70
2021/03/14 00:40:05;;;;;;;3.13;0.90;;;;;;;3.53;100.00;94848.91;1284782;23;20473;-70
2021/03/14 00:40:35;;;;;;;4.53;0.98;;;;;;;3.53;100.00;94851.56;1290560;23;20004;-69
2021/03/14 00:41:06;;;;;;;2.33;1.00;;;;;;;3.52;100.00;94841.22;1290666;23;19996;-71
2021/03/14 00:41:36;;;;;;;2.17;1.00;;;;;;;3.51;100.00;94845.72;1290702;23;20377;-70
2021/03/14 00:42:07;;;;;;;5.33;1.20;;;;;;;3.51;100.00;94843.06;1290556;23;20441;-70
2021/03/14 00:42:37;;;;;;;3.00;1.23;;;;;;;3.50;100.00;94844.13;1284775;23;20000;-70
2021/03/14 00:43:07;;;;;;;3.37;1.10;;;;;;;3.48;100.00;94840.94;1284586;23;20000;-70
2021/03/14 00:43:38;;;;;;;3.77;1.10;;;;;;;3.50;100.00;94843.31;1284780;23;20009;-70
2021/03/14 00:44:08;;;;;;;3.80;0.90;;;;;;;3.49;100.00;94842.53;1284286;23;19996;-70
2021/03/14 00:44:39;;;;;;;2.00;0.90;;;;;;;3.50;100.00;94841.47;1284484;23;20004;-70
2021/03/14 00:45:10;;;;;;;5.40;1.53;;;;;;;3.52;100.00;94836.72;1278147;23;20005;-70
2021/03/14 00:45:40;;;;;;;3.73;1.23;;;;;;;3.52;100.00;94844.66;1278534;23;20057;-70
2021/03/14 00:46:11;;;;;;;5.00;1.00;;;;;;;3.51;100.00;94843.06;1284341;23;20226;-70
2021/03/14 00:46:42;;;;;;;4.05;1.10;;;;;;;3.50;100.00;94844.13;1284102;23;20450;-70
2021/03/14 00:47:12;;;;;;;5.03;1.03;;;;;;;3.51;100.00;94848.34;1284847;23;19992;-70
2021/03/14 00:47:42;;;;;;;3.50;1.00;;;;;;;3.51;100.00;94852.84;1284835;23;19997;-70
2021/03/14 00:48:13;;;;;;;3.43;1.00;;;;;;;3.54;100.00;94845.22;1284721;23;20007;-70
2021/03/14 00:48:43;;;;;;;6.53;1.30;;;;;;;3.52;100.00;94842.00;1284858;23;20000;-70
2021/03/14 00:49:23;;;;;;;5.30;1.17;;;;;;;3.51;100.00;94842.28;1284820;23;20003;-69
2021/03/14 00:49:53;;;;;;;2.72;1.00;;;;;;;3.52;100.00;94839.38;1284940;23;20001;-69
2021/03/14 00:50:24;;;;;;;3.47;1.00;;;;;;;3.52;100.00;94841.22;1284870;23;20015;-70
2021/03/14 00:50:54;;;;;;;2.20;1.10;;;;;;;3.53;100.00;94848.91;1284796;23;20001;-70
2021/03/14 00:51:25;;;;;;;2.60;1.07;;;;;;;3.55;100.00;94843.38;1284800;23;20005;-70
2021/03/14 00:51:55;;;;;;;3.77;1.10;;;;;;;3.61;100.00;94845.00;1284649;23;20004;-70
2021/03/14 00:52:26;;;;;;;3.23;1.20;;;;;;;3.62;100.00;94846.56;1284700;23;20004;-70
2021/03/14 00:52:56;;;;;;;3.67;0.90;;;;;;;3.60;100.00;94836.28;1284731;23;20008;-70
2021/03/14 00:53:26;;;;;;;3.10;1.20;;;;;;;3.60;100.00;94840.75;1284600;23;20100;-70
2021/03/14 00:53:58;;;;;;;4.30;1.00;;;;;;;3.58;100.00;94845.47;1284816;23;20000;-70
2021/03/14 00:54:29;;;;;;;4.75;1.00;;;;;;;3.54;100.00;94847.06;1284799;23;20030;-70
2021/03/14 00:54:59;;;;;;;7.10;1.13;;;;;;;3.53;100.00;94838.34;1284789;23;20443;-70
2021/03/14 00:55:30;;;;;;;3.93;1.07;;;;;;;3.51;100.00;94844.91;1284523;23;19996;-70
2021/03/14 00:56:00;;;;;;;3.50;0.90;;;;;;;3.49;100.00;94844.38;1284210;23;20422;-70
2021/03/14 00:56:30;;;;;;;4.27;1.20;;;;;;;3.44;100.00;94842.50;1284394;23;20442;-70
2021/03/14 00:57:01;;;;;;;3.90;1.00;;;;;;;3.41;100.00;94845.63;1284514;23;20004;-71
2021/03/14 00:57:31;;;;;;;5.63;1.10;;;;;;;3.36;100.00;94846.38;1284516;23;20319;-70
2021/03/14 00:58:02;;;;;;;2.70;1.10;;;;;;;3.36;100.00;94854.31;1284864;23;20004;-70
2021/03/14 00:58:33;;;;;;;3.63;1.10;;;;;;;3.39;100.00;94847.75;1284646;23;20000;-70
2021/03/14 00:59:03;;;;;;;2.43;1.00;;;;;;;3.37;100.00;94853.25;1284691;23;20009;-70
2021/03/14 00:59:34;;;;;;;2.90;1.00;;;;;;;3.32;100.00;94852.41;1284836;23;20430;-70
2021/03/14 01:00:05;;;;;;;2.37;1.10;;;;;;;3.27;100.00;94845.25;1284599;23;20028;-71
2021/03/14 01:00:35;;;;;;;3.55;1.00;;;;;;;3.27;100.00;94844.44;1284726;23;20075;-70
2021/03/14 01:01:06;;;;;;;4.07;1.00;;;;;;;3.23;100.00;94838.91;1284752;23;20000;-70
2021/03/14 01:01:36;;;;;;;3.30;1.20;;;;;;;3.21;100.00;94843.63;1284783;23;20008;-70
2021/03/14 01:02:07;;;;;;;4.77;1.40;;;;;;;3.24;100.00;94844.97;1284742;23;19996;-70
2021/03/14 01:02:37;;;;;;;3.13;0.97;;;;;;;3.22;100.00;94853.13;1284763;23;19997;-70
2021/03/14 01:03:08;;;;;;;2.30;0.80;;;;;;;3.25;100.00;94851.84;1284618;23;20005;-70
2021/03/14 01:03:38;;;;;;;2.57;1.00;;;;;;;3.20;100.00;94852.59;1284727;23;20000;-70
2021/03/14 01:04:08;;;;;;;3.63;0.97;;;;;;;3.24;100.00;94850.25;1284867;23;20008;-70
2021/03/14 01:04:39;;;;;;;3.10;1.00;;;;;;;3.25;100.00;94854.47;1284811;23;19996;-70
2021/03/14 01:05:10;;;;;;;3.83;1.17;;;;;;;3.20;100.00;94852.59;1284627;23;19999;-70
2021/03/14 01:05:40;;;;;;;5.53;1.00;;;;;;;3.16;100.00;94850.69;1284843;23;19997;-70
2021/03/14 01:06:11;;;;;;;5.13;1.13;;;;;;;3.19;100.00;94844.94;1284780;23;20422;-70
2021/03/14 01:06:42;;;;;;;2.03;0.80;;;;;;;3.14;100.00;94837.75;1284423;23;20008;-70
2021/03/14 01:07:12;;;;;;;3.00;0.90;;;;;;;3.17;100.00;94850.44;1284378;23;20001;-69
2021/03/14 01:07:42;;;;;;;3.07;1.17;;;;;;;3.19;100.00;94848.38;1284440;23;20001;-70
2021/03/14 01:08:16;;;;;;;5.17;1.47;;;;;;;3.18;100.00;94846.78;1284429;23;20003;-71
2021/03/14 01:08:46;;;;;;;4.13;1.00;;;;;;;3.19;100.00;94842.28;1284728;23;20004;-70
2021/03/14 01:09:17;;;;;;;3.73;0.90;;;;;;;3.14;100.00;94843.03;1284728;23;20004;-71
2021/03/14 01:09:47;;;;;;;4.13;0.80;;;;;;;3.14;100.00;94843.03;1284415;23;19996;-70
2021/03/14 01:10:18;;;;;;;3.70;1.03;;;;;;;3.15;100.00;94846.47;1284297;23;20004;-71
2021/03/14 01:10:48;;;;;;;1.90;0.80;;;;;;;3.16;100.00;94848.06;1284474;23;20004;-70
2021/03/14 01:11:19;;;;;;;4.67;1.03;;;;;;;3.11;100.00;94844.31;1278229;23;20005;-71
2021/03/14 01:11:49;;;;;;;1.80;0.70;;;;;;;3.11;100.00;94849.59;1284337;23;20079;-70
2021/03/14 01:12:19;;;;;;;4.17;0.90;;;;;;;3.05;100.00;94841.91;1284367;23;20363;-70
2021/03/14 01:12:50;;;;;;;3.90;1.20;;;;;;;3.08;100.00;94844.06;1278219;23;20004;-70
2021/03/14 01:13:20;;;;;;;1.60;0.87;;;;;;;3.09;100.00;94843.00;1284189;23;20000;-71
2021/03/14 01:13:51;;;;;;;4.07;1.00;;;;;;;3.08;100.00;94844.84;1284364;23;19997;-70
2021/03/14 01:14:21;;;;;;;2.30;0.90;;;;;;;3.06;100.00;94846.91;1284392;23;20080;-71
2021/03/14 01:14:52;;;;;;;3.77;0.90;;;;;;;3.09;100.00;94837.72;1284770;23;19997;-70
2021/03/14 01:15:22;;;;;;;3.37;1.00;;;;;;;3.13;100.00;94839.59;1284721;23;20005;-71
2021/03/14 01:15:53;;;;;;;2.73;0.83;;;;;;;3.13;100.00;94839.59;1284015;23;20008;-71
2021/03/14 01:16:23;;;;;;;2.80;1.00;;;;;;;3.17;100.00;94839.88;1284835;23;20024;-71
2021/03/14 01:16:54;;;;;;;3.23;0.90;;;;;;;3.17;100.00;94845.16;1284727;23;20321;-70
2021/03/14 01:17:24;;;;;;;3.07;0.90;;;;;;;3.18;100.00;94836.22;1284366;23;20079;-70
2021/03/14 01:17:54;;;;;;;3.30;1.00;;;;;;;3.20;100.00;94842.03;1284331;23;20008;-70
2021/03/14 01:18:25;;;;;;;1.47;0.63;;;;;;;3.20;100.00;94838.59;1284398;23;20005;-71
2021/03/14 01:18:55;;;;;;;3.63;1.00;;;;;;;3.18;100.00;94836.22;1284389;23;20477;-70
2021/03/14 01:19:26;;;;;;;1.63;0.80;;;;;;;3.17;100.00;94839.09;1284805;23;20003;-71
2021/03/14 01:19:56;;;;;;;4.90;1.13;;;;;;;3.16;100.00;94833.00;1284714;23;20078;-70
2021/03/14 01:20:26;;;;;;;2.17;0.80;;;;;;;3.17;100.00;94837.25;1284865;23;20373;-70
2021/03/14 01:20:57;;;;;;;1.73;1.00;;;;;;;3.14;100.00;94840.41;1284679;23;20426;-70
2021/03/14 01:21:29;;;;;;;2.23;0.80;;;;;;;3.13;100.00;94830.91;1284821;23;20442;-70
2021/03/14 01:21:59;;;;;;;4.10;0.90;;;;;;;3.12;100.00;94839.84;1284713;23;20542;-70
2021/03/14 01:22:29;;;;;;;2.43;0.83;;;;;;;3.06;100.00;94833.72;1284342;23;20003;-70
2021/03/14 01:23:00;;;;;;;2.37;1.00;;;;;;;3.08;100.00;94836.91;1284216;23;20469;-70
2021/03/14 01:23:30;;;;;;;3.63;1.00;;;;;;;3.11;100.00;94840.88;1284175;23;20047;-71
2021/03/14 01:24:01;;;;;;;2.40;0.80;;;;;;;3.08;100.00;94831.66;1284446;23;19993;-70
2021/03/14 01:24:31;;;;;;;3.37;1.00;;;;;;;3.03;100.00;94828.97;1284741;23;20003;-71
2021/03/14 01:25:03;;;;;;;2.20;0.90;;;;;;;3.06;100.00;94832.94;1284740;23;19996;-70
2021/03/14 01:25:33;;;;;;;3.60;1.15;;;;;;;3.02;100.00;94824.72;1284335;23;20024;-70
2021/03/14 01:26:03;;;;;;;3.60;1.00;;;;;;;3.04;100.00;94827.91;1284686;23;19992;-70
2021/03/14 01:26:34;;;;;;;2.63;0.90;;;;;;;3.01;100.00;94831.03;1284309;23;20007;-70
2021/03/14 01:27:05;;;;;;;4.47;1.20;;;;;;;3.05;100.00;94833.97;1284247;23;19996;-70
2021/03/14 01:27:35;;;;;;;2.50;0.90;;;;;;;3.04;100.00;94822.63;1284419;23;20000;-70
2021/03/14 01:28:06;;;;;;;1.97;0.73;;;;;;;2.99;100.00;94817.31;1284356;23;20334;-70
2021/03/14 01:28:36;;;;;;;2.73;0.80;;;;;;;2.96;100.00;94812.50;1284657;23;19997;-70
2021/03/14 01:29:06;;;;;;;1.77;0.70;;;;;;;2.97;100.00;94824.69;1284798;23;19996;-70
2021/03/14 01:29:37;;;;;;;2.10;0.70;;;;;;;2.97;100.00;94827.31;1284812;23;20000;-70
2021/03/14 01:30:09;;;;;;;11.13;2.17;;;;;;;2.95;100.00;94812.78;1284543;23;20004;-70
2021/03/14 01:30:39;;;;;;;1.73;0.85;;;;;;;2.94;100.00;94822.53;1284811;23;20008;-70
2021/03/14 01:31:10;;;;;;;3.40;0.80;;;;;;;2.94;100.00;94827.81;1284752;23;19992;-70
2021/03/14 01:31:40;;;;;;;2.27;0.80;;;;;;;2.93;100.00;94817.50;1284745;23;20008;-70
2021/03/14 01:32:10;;;;;;;2.70;0.90;;;;;;;2.94;100.00;94825.19;1290541;23;19999;-70
2021/03/14 01:32:42;;;;;;;3.13;0.90;;;;;;;2.97;100.00;94823.88;1289934;23;19996;-70
2021/03/14 01:33:12;;;;;;;2.25;0.80;;;;;;;2.90;100.00;94825.91;1290512;23;20429;-70
2021/03/14 01:33:42;;;;;;;3.70;0.83;;;;;;;2.88;100.00;94828.81;1290247;23;20007;-70
2021/03/14 01:34:13;;;;;;;1.63;0.70;;;;;;;2.88;100.00;94826.19;1284606;23;20003;-70
2021/03/14 01:34:43;;;;;;;3.07;0.70;;;;;;;2.90;100.00;94824.06;1284767;23;20008;-70
2021/03/14 01:35:14;;;;;;;3.20;0.70;;;;;;;2.90;100.00;94821.44;1284688;23;19992;-70
2021/03/14 01:35:44;;;;;;;3.63;1.00;;;;;;;2.92;100.00;94821.19;1284187;23;20067;-70
2021/03/14 01:36:16;;;;;;;1.17;0.60;;;;;;;2.90;100.00;94824.06;1284715;23;19997;-70
2021/03/14 01:36:46;;;;;;;1.75;0.50;;;;;;;2.90;100.00;94815.38;1284704;23;20072;-70
2021/03/14 01:37:17;;;;;;;1.83;0.70;;;;;;;2.90;100.00;94818.78;1284664;23;20003;-70
2021/03/14 01:37:48;;;;;;;2.25;0.65;;;;;;;2.90;100.00;94823.28;1284854;23;19997;-70
2021/03/14 01:38:18;;;;;;;1.17;0.70;;;;;;;2.92;100.00;94822.00;1284639;23;20348;-71
2021/03/14 01:38:49;;;;;;;3.33;0.83;;;;;;;2.92;100.00;94822.00;1284734;23;20355;-70
2021/03/14 01:39:20;;;;;;;1.77;0.60;;;;;;;2.94;100.00;94821.75;1284716;23;20423;-70
2021/03/14 01:39:50;;;;;;;4.30;0.80;;;;;;;2.95;100.00;94821.47;1284340;23;20426;-70
2021/03/14 01:40:21;;;;;;;1.30;0.70;;;;;;;2.92;100.00;94816.72;1284295;23;20482;-70
2021/03/14 01:40:51;;;;;;;1.93;0.80;;;;;;;2.95;100.00;94818.84;1284431;23;20422;-71
2021/03/14 01:41:21;;;;;;;2.43;0.80;;;;;;;2.94;100.00;94808.53;1284335;23;20050;-70
2021/03/14 01:41:52;;;;;;;2.17;0.73;;;;;;;2.90;100.00;94813.53;1284772;23;19996;-70
2021/03/14 01:42:29;;;;;;;2.07;0.80;;;;;;;2.93;100.00;94813.03;1277998;23;20004;-70
2021/03/14 01:42:59;;;;;;;2.63;0.90;;;;;;;2.95;100.00;94807.50;1278038;23;19997;-70
2021/03/14 01:43:35;;;;;;;1.50;0.60;;;;;;;2.94;100.00;94806.69;1278018;23;20008;-71
2021/03/14 01:44:06;;;;;;;1.98;0.70;;;;;;;2.92;100.00;94811.44;1280778;23;20009;-70
2021/03/14 01:44:37;;;;;;;2.00;0.88;;;;;;;2.86;100.00;94812.41;1284639;23;20060;-70
2021/03/14 01:45:07;;;;;;;2.07;0.90;;;;;;;2.83;100.00;94813.72;1284740;23;20004;-71
2021/03/14 01:45:38;;;;;;;3.20;0.70;;;;;;;2.84;100.00;94817.16;1284252;23;19992;-70
2021/03/14 01:46:09;;;;;;;5.20;1.00;;;;;;;2.80;100.00;94816.84;1284322;23;20465;-70
2021/03/14 01:46:40;;;;;;;1.02;0.52;;;;;;;2.80;100.00;94814.22;1284318;23;20001;-70
2021/03/14 01:47:11;;;;;;;1.87;0.77;;;;;;;2.80;100.00;94813.44;1278499;23;20005;-70
2021/03/14 01:47:43;;;;;;;1.30;0.60;;;;;;;2.80;100.00;94811.56;1271888;23;20045;-70
2021/03/14 01:48:18;;;;;;;2.15;0.65;;;;;;;2.80;100.00;94814.22;1271976;23;20009;-70
2021/03/14 01:48:48;;;;;;;0.75;0.60;;;;;;;2.85;100.00;94809.00;1265740;23;20507;-70
2021/03/14 01:49:19;;;;;;;1.20;0.60;;;;;;;2.83;100.00;94813.72;1268869;23;20013;-70
2021/03/14 01:49:49;;;;;;;0.93;0.60;;;;;;;2.82;100.00;94816.63;1265837;23;20044;-70
2021/03/14 01:50:24;;;;;;;3.13;0.77;;;;;;;2.84;100.00;94812.69;1266483;23;20388;-70
2021/03/14 01:50:54;;;;;;;2.83;0.85;;;;;;;2.85;100.00;94816.91;1278118;23;20001;-70
2021/03/14 01:51:25;;;;;;;2.50;1.00;;;;;;;2.85;100.00;94821.38;1279982;23;20536;-70
2021/03/14 01:51:55;;;;;;;2.70;0.80;;;;;;;2.85;100.00;94816.09;1290668;23;20042;-70
2021/03/14 01:52:26;;;;;;;1.70;0.67;;;;;;;2.82;100.00;94816.63;1290566;23;20067;-70
2021/03/14 01:52:56;;;;;;;1.60;0.70;;;;;;;2.82;100.00;94822.69;1278104;23;20001;-70
2021/03/14 01:53:27;;;;;;;2.23;0.60;;;;;;;2.82;100.00;94824.53;1277911;23;20001;-71
2021/03/14 01:53:57;;;;;;;2.37;0.67;;;;;;;2.83;100.00;94820.84;1271915;23;20005;-70
2021/03/14 01:54:27;;;;;;;2.23;0.70;;;;;;;2.82;100.00;94827.97;1265962;23;20013;-71
2021/03/14 01:54:59;;;;;;;2.23;0.60;;;;;;;2.82;100.00;94830.63;1278129;23;20013;-70
2021/03/14 01:55:29;;;;;;;1.70;0.70;;;;;;;2.85;100.00;94824.03;1278527;23;20001;-71
2021/03/14 01:56:00;;;;;;;1.27;0.60;;;;;;;2.80;100.00;94818.69;1278539;23;20068;-71
2021/03/14 01:56:30;;;;;;;4.40;0.87;;;;;;;2.80;100.00;94821.34;1284300;23;20040;-70
2021/03/14 01:57:01;;;;;;;3.97;0.90;;;;;;;2.78;100.00;94826.09;1278121;23;20390;-71
2021/03/14 01:57:31;;;;;;;1.90;0.70;;;;;;;2.81;100.00;94830.84;1272080;23;20412;-70
2021/03/14 01:58:02;;;;;;;2.17;0.90;;;;;;;2.79;100.00;94828.47;1272043;23;20032;-70
2021/03/14 01:58:34;;;;;;;2.07;0.80;;;;;;;2.78;100.00;94821.59;1271974;23;20084;-71
2021/03/14 01:59:04;;;;;;;4.47;0.80;;;;;;;2.75;100.00;94822.09;1278229;23;20059;-70
2021/03/14 01:59:35;;;;;;;1.47;0.60;;;;;;;2.79;100.00;94825.03;1284388;23;20015;-71
2021/03/14 02:00:07;;;;;;;2.42;0.80;;;;;;;2.77;100.00;94827.13;1284278;23;20083;-71
2021/03/14 02:00:37;;;;;;;2.28;0.77;;;;;;;2.78;100.00;94831.34;1284425;23;20046;-70
2021/03/14 02:01:08;;;;;;;2.03;0.70;;;;;;;2.77;100.00;94824.50;1284361;23;20009;-70
2021/03/14 02:01:39;;;;;;;1.63;0.70;;;;;;;2.76;100.00;94821.03;1283680;23;20008;-70
2021/03/14 02:02:09;;;;;;;1.33;0.70;;;;;;;2.75;100.00;94822.09;1284697;23;20047;-71
2021/03/14 02:02:40;;;;;;;2.20;0.60;;;;;;;2.76;100.00;94830.78;1284720;23;20050;-71
2021/03/14 02:03:11;;;;;;;2.10;0.80;;;;;;;2.73;100.00;94826.81;1284650;23;20057;-70
2021/03/14 02:03:41;;;;;;;3.80;1.00;;;;;;;2.73;100.00;94836.59;1284597;23;20231;-69
2021/03/14 02:04:11;;;;;;;1.53;0.70;;;;;;;2.75;100.00;94830.00;1284227;23;20003;-70
2021/03/14 02:04:42;;;;;;;2.70;0.60;;;;;;;2.77;100.00;94835.06;1284415;23;20001;-70
2021/03/14 02:05:13;;;;;;;2.23;0.87;;;;;;;2.79;100.00;94835.59;1271917;23;20005;-69
2021/03/14 02:05:44;;;;;;;1.67;0.80;;;;;;;2.81;100.00;94830.84;1272292;23;20439;-70
2021/03/14 02:06:14;;;;;;;1.13;0.70;;;;;;;2.78;100.00;94831.34;1278024;23;20001;-70
2021/03/14 02:06:45;;;;;;;2.63;1.13;;;;;;;2.80;100.00;94829.25;1278966;23;20053;-71
2021/03/14 02:07:15;;;;;;;3.03;1.00;;;;;;;2.77;100.00;94829.78;1284379;23;20004;-70
2021/03/14 02:07:48;;;;;;;0.70;0.53;;;;;;;2.74;100.00;94825.78;1284664;23;20071;-70
2021/03/14 02:08:18;;;;;;;0.82;0.52;;;;;;;2.78;100.00;94826.09;1278445;23;20001;-70
2021/03/14 02:08:49;;;;;;;2.20;0.60;;;;;;;2.76;100.00;94823.66;1279089;23;20052;-70
2021/03/14 02:09:19;;;;;;;1.10;0.50;;;;;;;2.76;100.00;94825.50;1284789;23;20008;-70
2021/03/14 02:09:50;;;;;;;1.47;0.63;;;;;;;2.76;100.00;94826.31;1284853;23;20003;-70
2021/03/14 02:10:23;;;;;;;0.80;0.60;;;;;;;2.77;100.00;94835.06;1284594;23;20004;-70
2021/03/14 02:10:54;;;;;;;1.88;0.60;;;;;;;2.74;100.00;94838.16;1284817;23;20007;-70
2021/03/14 02:11:25;;;;;;;2.17;0.70;;;;;;;2.77;100.00;94833.19;1278464;23;20005;-70
2021/03/14 02:11:57;;;;;;;1.67;0.68;;;;;;;2.77;100.00;94829.78;1279576;23;20072;-71
2021/03/14 02:12:27;;;;;;;3.22;0.60;;;;;;;2.76;100.00;94828.16;1272246;23;19997;-70
2021/03/14 02:13:06;;;;;;;1.77;0.60;;;;;;;2.75;100.00;94831.84;1260723;23;20002;-70
2021/03/14 02:13:39;;;;;;;2.30;0.60;;;;;;;2.69;100.00;94823.09;1254192;23;20084;-71
2021/03/14 02:14:09;;;;;;;1.05;0.60;;;;;;;2.69;100.00;94827.56;1256526;23;20003;-70
2021/03/14 02:14:40;;;;;;;3.17;1.00;;;;;;;2.69;100.00;94820.44;1264698;23;19998;-71
2021/03/14 02:15:10;;;;;;;2.47;0.50;;;;;;;2.67;100.00;94825.19;1267740;23;19998;-71
2021/03/14 02:15:46;;;;;;;3.50;0.63;;;;;;;2.69;100.00;94825.72;1272447;23;20056;-71
2021/03/14 02:16:23;;;;;;;2.22;0.50;;;;;;;2.77;100.00;94832.41;1266423;23;20396;-70
2021/03/14 02:16:54;;;;;;;2.28;0.70;;;;;;;2.76;100.00;94834.22;1272446;23;19993;-71
2021/03/14 02:17:26;;;;;;;0.70;0.60;;;;;;;2.78;100.00;94836.63;1272432;23;20006;-70
2021/03/14 02:17:57;;;;;;;0.50;0.50;;;;;;;2.79;100.00;94833.75;1266001;23;20002;-70
2021/03/14 02:18:27;;;;;;;2.00;0.63;;;;;;;2.80;100.00;94834.53;1272453;23;20013;-70
2021/03/14 02:19:00;;;;;;;1.60;0.60;;;;;;;2.80;100.00;94831.91;1266805;23;19998;-70
2021/03/14 02:19:31;;;;;;;2.63;0.73;;;;;;;2.78;100.00;94828.72;1266791;23;20576;-71
2021/03/14 02:20:15;;;;;;;0.90;0.60;;;;;;;2.78;100.00;94832.16;1260036;23;20393;-71
2021/03/14 02:20:45;;;;;;;1.42;0.70;;;;;;;2.79;100.00;94840.88;1269894;23;19994;-70
2021/03/14 02:21:16;;;;;;;1.13;0.57;;;;;;;2.80;100.00;94829.25;1269075;23;20002;-71
2021/03/14 02:21:46;;;;;;;2.03;0.60;;;;;;;2.79;100.00;94830.31;1271780;23;20029;-71
2021/03/14 02:22:17;;;;;;;1.40;0.67;;;;;;;2.78;100.00;94832.16;1272351;23;20009;-70
2021/03/14 02:22:48;;;;;;;1.13;0.60;;;;;;;2.77;100.00;94835.06;1260022;23;20022;-71
2021/03/14 02:23:43;;;;;;;1.58;0.70;;;;;;;2.71;100.00;94830.75;1260411;23;19998;-71
2021/03/14 02:24:15;;;;;;;1.73;0.70;;;;;;;2.72;100.00;94827.88;1271441;23;19993;-70
2021/03/14 02:24:46;;;;;;;0.80;0.60;;;;;;;2.74;100.00;94830.25;1277173;23;20035;-71
2021/03/14 02:25:23;;;;;;;3.67;0.80;;;;;;;2.77;100.00;94830.56;1277686;23;20007;-71
2021/03/14 02:26:02;;;;;;;1.63;0.60;;;;;;;2.80;100.00;94839.81;1278619;23;19997;-71